• Join FlightAware (Why Join?)
  • Login
  • US Flag 
05:25PM EDT


 

Airport Tracker/Info


-or-


 

Live Flight TrackerFlight Track Log ✈ N101MA ✈ 03-Jul-2013 ✈ KHPN - KLOM

Flight Track Log - Related Links

Times and Time Zones

All times are in EDT time to prevent confusion due to time zone crossing. See the N101MA flight status page for this flight to view local times or setup timezone preferences in your user account.

Time Position Orientation Groundspeed Altitude Reporting Facility
EDT Latitude Longitude Course Direction KTS MPH feet Rate Location/Type
12:58PM 41.0333 -73.7167 323° Northwest 120 138 1,300  Level New York TRACON
12:59PM 41.0667 -73.7500 323° Northwest 126 145 2,100 660 Climbing New York TRACON
01:00PM 41.0833 -73.7667 323° Northwest 127 146 2,600 720 Climbing New York TRACON
01:01PM 41.1000 -73.8167 294° West 118 136 3,600 720 Climbing New York TRACON
01:02PM 41.1333 -73.8500 323° Northwest 132 152 4,200 780 Climbing New York TRACON
01:03PM 41.1500 -73.8667 323° Northwest 112 129 5,100 840 Climbing New York TRACON
01:04PM 41.1667 -73.9000 304° West 120 138 5,800 720 Climbing New York TRACON
01:05PM 41.2000 -73.9333 323° Northwest 119 137 6,700 660 Climbing New York TRACON
01:06PM 41.2000 -73.9833 270° West 117 135 7,300 540 Climbing New York TRACON
01:07PM 41.1833 -74.0333 246° West 127 146 7,800 300 Climbing New York TRACON
01:08PM 41.1833 -74.0667 270° West 138 159 8,000 120 Climbing New York TRACON
01:09PM 41.1667 -74.1333 252° West 158 182 8,100  Climbing New York TRACON
01:10PM 41.1500 -74.1833 246° West 152 175 8,100  Level New York TRACON
01:11PM 41.1333 -74.2333 246° West 154 177 8,100 -60 Level New York TRACON
01:12PM 41.1333 -74.2833 270° West 152 175 8,000 -60 Descending New York TRACON
01:13PM 41.1167 -74.3500 252° West 157 181 8,000  Level New York TRACON
01:14PM 41.1000 -74.4000 246° West 157 181 8,000  Level New York TRACON
01:15PM 41.0833 -74.4500 246° West 157 181 8,000  Level New York TRACON
01:16PM 41.0833 -74.5000 270° West 155 178 8,000  Level New York TRACON
01:17PM 41.0500 -74.5500 229° Southwest 155 178 8,000  Level New York TRACON
01:18PM 41.0167 -74.5667 201° Southwest 157 181 8,000  Level New York TRACON
01:19PM 40.9667 -74.5833 194° South 154 177 8,000  Level New York TRACON
01:20PM 40.9333 -74.6000 201° Southwest 156 180 8,000 -60 Level New York TRACON
01:21PM 40.8833 -74.6167 194° South 159 183 7,900 -480 Descending New York TRACON
01:22PM 40.8500 -74.6500 217° Southwest 180 207 7,200 -660 Descending New York TRACON
01:23PM 40.8167 -74.7000 229° Southwest 183 211 6,600 -600 Descending New York TRACON
01:24PM 40.7833 -74.7500 229° Southwest 178 205 6,000 -600 Descending New York TRACON
01:25PM 40.7500 -74.7833 217° Southwest 179 206 5,400 -600 Descending New York TRACON
01:26PM 40.7000 -74.8167 207° Southwest 181 208 4,900 -600 Descending New York TRACON
01:28PM 40.6333 -74.8333 191° South 172 198 4,000 -360 Descending Philadelphia TRACON
01:29PM 40.5833 -74.8500 194° South 159 183 4,100  Climbing Philadelphia TRACON
01:29PM 40.5500 -74.8500 180° South 157 181 4,000 -60 Descending Philadelphia TRACON
01:31PM 40.5000 -74.8667 194° South 153 176 4,000  Level Philadelphia TRACON
01:32PM 40.4667 -74.9000 217° Southwest 147 169 4,000  Level Philadelphia TRACON
01:33PM 40.4333 -74.9333 217° Southwest 148 170 4,000 -300 Level Philadelphia TRACON
01:34PM 40.3833 -74.9500 194° South 163 188 3,500 -480 Descending Philadelphia TRACON
01:35PM 40.3500 -74.9833 217° Southwest 169 194 3,100 -360 Descending Philadelphia TRACON
01:35PM 40.3167 -75.0167 217° Southwest 163 188 2,900 -480 Descending Philadelphia TRACON
01:36PM 40.2833 -75.0500 217° Southwest 158 182 2,200 -480 Descending Philadelphia TRACON
01:37PM 40.2500 -75.0833 217° Southwest 150 173 2,000 -120 Descending Philadelphia TRACON
01:38PM 40.2167 -75.1167 217° Southwest 141 162 2,000  Level Philadelphia TRACON
01:40PM 40.2000 -75.1667 246° West 128 147 2,000  Level Philadelphia TRACON